Time;durP1;ratioP1;P1;durP2;ratioP2;P2;SDS_P1;SDS_P2;PMS_P1;PMS_P2;Temp;Humidity;BMP_temperature;BMP_pressure;BME280_temperature;BME280_humidity;BME280_pressure;Samples;Min_cycle;Max_cycle;Signal;HPM_P1;HPM_P2
2022/01/31 00:00:55;;;;;;;4.85;2.60;;;;;;;;;;5075113;28;20484;-70
2022/01/31 00:03:21;;;;;;;8.25;3.45;;;;;;;;;;5074649;28;20089;-70
2022/01/31 00:05:48;;;;;;;2.83;1.70;;;;;;;;;;5074815;28;20055;-70
2022/01/31 00:08:22;;;;;;;4.78;2.80;;;;;;;;;;5074988;28;20059;-70
2022/01/31 00:10:49;;;;;;;7.80;3.60;;;;;;;;;;5074446;28;20495;-70
2022/01/31 00:13:23;;;;;;;4.65;2.65;;;;;;;;;;5075030;28;20040;-70
2022/01/31 00:15:54;;;;;;;5.38;2.78;;;;;;;;;;5075345;28;20036;-70
2022/01/31 00:18:21;;;;;;;3.22;2.00;;;;;;;;;;5074666;28;20228;-70
2022/01/31 00:20:47;;;;;;;3.08;1.75;;;;;;;;;;5075482;28;20036;-70
2022/01/31 00:23:13;;;;;;;2.80;1.92;;;;;;;;;;5074908;28;20046;-70
2022/01/31 00:25:39;;;;;;;2.05;1.50;;;;;;;;;;5075072;28;20082;-70
2022/01/31 00:28:05;;;;;;;7.65;4.22;;;;;;;;;;5074911;28;20098;-71
2022/01/31 00:30:31;;;;;;;7.63;4.00;;;;;;;;;;5074975;28;20078;-70
2022/01/31 00:32:58;;;;;;;2.78;1.90;;;;;;;;;;5074604;28;20036;-71
2022/01/31 00:35:26;;;;;;;3.38;2.05;;;;;;;;;;5074655;28;20460;-70
2022/01/31 00:37:52;;;;;;;1.75;1.35;;;;;;;;;;5074431;28;20032;-70
2022/01/31 00:40:19;;;;;;;1.40;1.30;;;;;;;;;;5075300;28;20051;-70
2022/01/31 00:42:45;;;;;;;1.33;1.13;;;;;;;;;;5074422;28;20036;-71
2022/01/31 00:45:16;;;;;;;1.95;1.55;;;;;;;;;;5075088;28;20047;-70
2022/01/31 00:47:45;;;;;;;4.32;2.33;;;;;;;;;;5074082;28;20110;-70
2022/01/31 00:50:13;;;;;;;9.23;4.93;;;;;;;;;;5074659;28;20115;-70
2022/01/31 00:52:41;;;;;;;7.32;3.97;;;;;;;;;;5074356;28;20416;-70
2022/01/31 00:55:08;;;;;;;5.00;2.50;;;;;;;;;;5074575;28;20498;-70
2022/01/31 00:57:34;;;;;;;2.47;1.88;;;;;;;;;;5074570;28;20044;-70
2022/01/31 01:00:00;;;;;;;6.32;3.20;;;;;;;;;;5074359;28;20116;-70
2022/01/31 01:02:26;;;;;;;2.85;1.77;;;;;;;;;;5077360;28;20068;-70
2022/01/31 01:04:53;;;;;;;1.55;1.23;;;;;;;;;;5078633;28;20347;-70
2022/01/31 01:07:19;;;;;;;2.45;1.58;;;;;;;;;;5077757;28;20142;-70
2022/01/31 01:09:46;;;;;;;1.38;1.23;;;;;;;;;;5078328;28;20356;-70
2022/01/31 01:12:13;;;;;;;10.05;4.78;;;;;;;;;;5077727;28;20048;-70
2022/01/31 01:14:40;;;;;;;6.32;2.65;;;;;;;;;;5078018;28;20033;-70
2022/01/31 01:17:06;;;;;;;6.22;2.92;;;;;;;;;;5078143;28;20036;-70
2022/01/31 01:19:32;;;;;;;4.72;2.13;;;;;;;;;;5077977;28;20036;-70
2022/01/31 01:21:59;;;;;;;5.68;2.92;;;;;;;;;;5077549;28;20066;-70
2022/01/31 01:24:25;;;;;;;3.38;2.15;;;;;;;;;;5077478;28;20032;-70
2022/01/31 01:26:51;;;;;;;14.68;6.00;;;;;;;;;;5077731;28;20044;-70
2022/01/31 01:29:19;;;;;;;3.13;1.98;;;;;;;;;;5077395;28;20028;-70
2022/01/31 01:31:46;;;;;;;4.72;2.33;;;;;;;;;;5077558;28;20166;-70
2022/01/31 01:34:12;;;;;;;11.27;4.75;;;;;;;;;;5077488;28;20032;-70
2022/01/31 01:36:39;;;;;;;3.83;1.83;;;;;;;;;;5077595;28;20059;-70
2022/01/31 01:39:08;;;;;;;5.03;2.63;;;;;;;;;;5077504;28;20068;-70
2022/01/31 01:41:34;;;;;;;4.25;2.42;;;;;;;;;;5077478;28;20056;-70
2022/01/31 01:44:00;;;;;;;4.45;2.15;;;;;;;;;;5077151;28;20028;-70
2022/01/31 01:46:26;;;;;;;2.50;1.60;;;;;;;;;;5077598;28;20115;-70
2022/01/31 01:48:52;;;;;;;4.10;2.20;;;;;;;;;;5077190;28;20115;-70
2022/01/31 01:51:19;;;;;;;3.58;2.00;;;;;;;;;;5077357;28;20044;-70
2022/01/31 01:53:45;;;;;;;1.95;1.75;;;;;;;;;;5077825;28;20028;-70
2022/01/31 01:56:13;;;;;;;1.33;1.23;;;;;;;;;;5077212;28;20036;-70
2022/01/31 01:58:42;;;;;;;2.17;1.50;;;;;;;;;;5077214;28;20124;-70
2022/01/31 02:01:09;;;;;;;2.88;2.38;;;;;;;;;;5076783;28;20050;-70
2022/01/31 02:03:37;;;;;;;2.85;2.10;;;;;;;;;;5076652;28;20427;-70
2022/01/31 02:06:04;;;;;;;2.67;1.90;;;;;;;;;;5076801;28;20123;-70
2022/01/31 02:08:40;;;;;;;2.55;2.03;;;;;;;;;;5077157;28;20048;-70
2022/01/31 02:11:07;;;;;;;2.75;2.13;;;;;;;;;;5077644;28;20100;-70
2022/01/31 02:13:34;;;;;;;2.08;1.88;;;;;;;;;;5076248;28;20040;-70
2022/01/31 02:16:00;;;;;;;2.13;1.73;;;;;;;;;;5077211;28;20032;-71
2022/01/31 02:18:29;;;;;;;2.20;1.70;;;;;;;;;;5076988;28;20047;-70
2022/01/31 02:20:55;;;;;;;3.30;1.92;;;;;;;;;;5076927;28;20040;-70
2022/01/31 02:23:21;;;;;;;5.75;2.05;;;;;;;;;;5077018;28;20050;-70
2022/01/31 02:25:57;;;;;;;2.25;1.65;;;;;;;;;;5076739;28;20028;-70
2022/01/31 02:28:24;;;;;;;2.30;1.75;;;;;;;;;;5077018;28;20064;-70
2022/01/31 02:30:50;;;;;;;1.90;1.40;;;;;;;;;;5077500;28;20048;-70
2022/01/31 02:33:18;;;;;;;2.47;1.48;;;;;;;;;;5076706;28;20119;-70
2022/01/31 02:35:45;;;;;;;1.67;1.58;;;;;;;;;;5076533;28;20468;-70
2022/01/31 02:38:11;;;;;;;2.38;1.52;;;;;;;;;;5076748;28;20039;-70
2022/01/31 02:40:37;;;;;;;1.85;1.45;;;;;;;;;;5077279;28;20043;-70
2022/01/31 02:43:03;;;;;;;2.83;1.90;;;;;;;;;;5076609;28;20098;-70
2022/01/31 02:45:30;;;;;;;3.80;1.60;;;;;;;;;;5076341;28;20113;-70
2022/01/31 02:47:59;;;;;;;1.48;1.35;;;;;;;;;;5076467;28;20111;-70
2022/01/31 02:50:26;;;;;;;1.88;1.48;;;;;;;;;;5076073;28;20040;-70
2022/01/31 02:53:14;;;;;;;1.60;1.42;;;;;;;;;;5076486;28;20121;-70
2022/01/31 02:55:41;;;;;;;1.58;1.20;;;;;;;;;;5077052;28;20043;-70
2022/01/31 02:58:08;;;;;;;1.20;1.10;;;;;;;;;;5076071;28;20071;-70
2022/01/31 03:00:35;;;;;;;1.80;1.25;;;;;;;;;;5076557;28;20119;-70
2022/01/31 03:03:01;;;;;;;2.03;1.38;;;;;;;;;;5076261;28;20054;-70
2022/01/31 03:05:27;;;;;;;1.40;1.30;;;;;;;;;;5076068;28;20102;-70
2022/01/31 03:07:53;;;;;;;1.88;1.50;;;;;;;;;;5076135;28;20047;-70
2022/01/31 03:10:20;;;;;;;1.50;1.30;;;;;;;;;;5058523;28;20371;-70
2022/01/31 03:12:46;;;;;;;2.00;1.60;;;;;;;;;;5075774;28;20044;-70
2022/01/31 03:15:12;;;;;;;1.63;1.23;;;;;;;;;;5076266;28;20463;-70
2022/01/31 03:17:40;;;;;;;1.45;1.35;;;;;;;;;;5075626;28;20086;-70
2022/01/31 03:20:07;;;;;;;1.83;1.60;;;;;;;;;;5076314;28;20047;-70
2022/01/31 03:22:33;;;;;;;1.70;1.60;;;;;;;;;;5076066;28;20051;-70
2022/01/31 03:24:59;;;;;;;3.20;2.03;;;;;;;;;;5075952;28;20040;-70
2022/01/31 03:27:25;;;;;;;2.10;1.63;;;;;;;;;;5075460;28;20045;-70
2022/01/31 03:29:51;;;;;;;2.15;1.95;;;;;;;;;;5075779;28;20044;-70
2022/01/31 03:32:17;;;;;;;2.08;1.63;;;;;;;;;;5075797;28;20065;-70
2022/01/31 03:34:44;;;;;;;2.53;2.28;;;;;;;;;;5075451;28;20413;-70
2022/01/31 03:37:10;;;;;;;2.22;1.95;;;;;;;;;;5075284;28;20433;-70
2022/01/31 03:39:36;;;;;;;2.15;1.95;;;;;;;;;;5076069;28;20036;-71
2022/01/31 03:42:02;;;;;;;2.80;1.85;;;;;;;;;;5075664;28;20040;-70
2022/01/31 03:44:29;;;;;;;2.60;2.03;;;;;;;;;;5075918;28;20115;-70
2022/01/31 03:46:56;;;;;;;3.53;2.10;;;;;;;;;;5075135;28;20449;-70
2022/01/31 03:49:22;;;;;;;1.92;1.73;;;;;;;;;;5075837;28;20068;-70
2022/01/31 03:51:48;;;;;;;3.03;1.70;;;;;;;;;;5075194;28;20024;-70
2022/01/31 03:54:14;;;;;;;2.60;2.05;;;;;;;;;;5075296;28;20083;-70
2022/01/31 03:56:41;;;;;;;2.53;2.00;;;;;;;;;;5075292;28;20165;-70
2022/01/31 03:59:07;;;;;;;3.17;2.17;;;;;;;;;;5076111;28;20043;-70
2022/01/31 04:01:34;;;;;;;2.45;2.08;;;;;;;;;;5075117;28;20037;-70
2022/01/31 04:04:00;;;;;;;2.28;1.98;;;;;;;;;;5074714;28;20085;-70
2022/01/31 04:06:26;;;;;;;2.85;2.30;;;;;;;;;;5074570;28;20070;-71
2022/01/31 04:08:52;;;;;;;3.08;2.20;;;;;;;;;;5075052;28;20055;-70
2022/01/31 04:11:18;;;;;;;2.60;2.05;;;;;;;;;;5074482;28;20475;-70
2022/01/31 04:13:45;;;;;;;2.20;2.00;;;;;;;;;;5074448;28;20087;-70
2022/01/31 04:16:11;;;;;;;4.18;2.35;;;;;;;;;;5075004;28;20078;-70
2022/01/31 04:18:37;;;;;;;2.53;2.30;;;;;;;;;;5074258;28;20063;-70
2022/01/31 04:21:03;;;;;;;2.35;2.10;;;;;;;;;;5074502;28;20044;-70
2022/01/31 04:23:29;;;;;;;3.13;2.15;;;;;;;;;;5074325;28;20047;-70
2022/01/31 04:26:06;;;;;;;2.45;2.10;;;;;;;;;;5075175;28;20094;-71
2022/01/31 04:28:40;;;;;;;2.35;2.15;;;;;;;;;;5074370;28;20036;-70
2022/01/31 04:31:24;;;;;;;2.38;2.17;;;;;;;;;;5074905;28;20484;-70
2022/01/31 04:33:51;;;;;;;2.45;2.05;;;;;;;;;;5074142;28;20036;-70
2022/01/31 04:36:17;;;;;;;2.35;2.15;;;;;;;;;;5073946;28;20040;-70
2022/01/31 04:38:45;;;;;;;2.25;1.85;;;;;;;;;;5074451;28;20082;-71
2022/01/31 04:41:11;;;;;;;2.65;2.45;;;;;;;;;;5074671;28;20044;-70
2022/01/31 04:43:37;;;;;;;2.83;2.50;;;;;;;;;;5074425;28;20040;-70
2022/01/31 04:46:05;;;;;;;3.00;2.60;;;;;;;;;;5074419;28;20098;-70
2022/01/31 04:48:31;;;;;;;2.65;2.45;;;;;;;;;;5074228;28;20048;-70
2022/01/31 04:50:58;;;;;;;2.22;2.00;;;;;;;;;;5074950;28;20116;-70
2022/01/31 04:53:24;;;;;;;3.72;2.08;;;;;;;;;;5074078;28;20483;-70
2022/01/31 04:55:50;;;;;;;3.05;2.60;;;;;;;;;;5074319;28;20093;-70
2022/01/31 04:58:17;;;;;;;2.70;2.47;;;;;;;;;;5073991;28;20037;-70
2022/01/31 05:00:43;;;;;;;2.67;2.25;;;;;;;;;;5074522;28;20055;-70
2022/01/31 05:03:12;;;;;;;2.70;2.50;;;;;;;;;;5070361;28;20036;-70
2022/01/31 05:05:38;;;;;;;2.38;2.00;;;;;;;;;;5055187;28;20063;-71
2022/01/31 05:08:04;;;;;;;2.20;1.98;;;;;;;;;;5070792;28;20052;-71
2022/01/31 05:10:33;;;;;;;2.40;2.13;;;;;;;;;;5075052;28;20463;-71
2022/01/31 05:12:59;;;;;;;3.33;2.35;;;;;;;;;;5069109;28;20094;-71
2022/01/31 05:15:26;;;;;;;5.13;3.53;;;;;;;;;;5073169;28;20258;-71
2022/01/31 05:17:52;;;;;;;2.30;2.10;;;;;;;;;;5066115;28;20043;-71
2022/01/31 05:20:18;;;;;;;2.25;2.05;;;;;;;;;;5094974;28;20094;-71
2022/01/31 05:22:44;;;;;;;2.42;2.22;;;;;;;;;;5059391;28;20121;-71
2022/01/31 05:25:11;;;;;;;2.20;2.00;;;;;;;;;;5053966;28;20041;-71
2022/01/31 05:27:37;;;;;;;2.03;1.83;;;;;;;;;;5062529;28;20044;-71
2022/01/31 05:30:04;;;;;;;2.42;2.10;;;;;;;;;;5069852;28;20143;-71
2022/01/31 05:32:30;;;;;;;2.72;2.25;;;;;;;;;;5066400;28;20479;-71
2022/01/31 05:34:56;;;;;;;1.75;1.55;;;;;;;;;;5072291;28;20025;-71
2022/01/31 05:37:23;;;;;;;2.40;2.10;;;;;;;;;;5060760;28;20090;-70
2022/01/31 05:39:49;;;;;;;2.00;1.80;;;;;;;;;;5074077;28;20075;-69
2022/01/31 05:42:15;;;;;;;2.25;2.05;;;;;;;;;;5072755;28;20079;-70
2022/01/31 05:44:43;;;;;;;2.17;1.98;;;;;;;;;;5073877;28;20119;-70
2022/01/31 05:47:09;;;;;;;2.80;2.45;;;;;;;;;;5073276;28;20040;-69
2022/01/31 05:49:36;;;;;;;2.60;2.40;;;;;;;;;;5055883;28;20048;-70
2022/01/31 05:52:05;;;;;;;2.50;2.30;;;;;;;;;;5057585;28;20033;-70
2022/01/31 05:54:38;;;;;;;3.13;2.83;;;;;;;;;;5061431;28;20040;-70
2022/01/31 05:57:04;;;;;;;2.70;2.42;;;;;;;;;;5065412;28;20132;-70
2022/01/31 05:59:31;;;;;;;2.30;2.10;;;;;;;;;;5072530;28;20044;-70
2022/01/31 06:02:01;;;;;;;3.35;2.30;;;;;;;;;;5058436;28;20483;-70
2022/01/31 06:04:28;;;;;;;2.80;2.22;;;;;;;;;;5057520;28;20039;-70
2022/01/31 06:06:54;;;;;;;2.42;2.22;;;;;;;;;;5057147;28;20136;-70
2022/01/31 06:09:20;;;;;;;2.33;2.13;;;;;;;;;;5057051;28;20076;-69
2022/01/31 06:11:49;;;;;;;2.55;2.22;;;;;;;;;;5056679;28;20387;-69
2022/01/31 06:14:15;;;;;;;3.40;2.25;;;;;;;;;;5056931;28;20040;-70
2022/01/31 06:16:41;;;;;;;2.72;2.30;;;;;;;;;;5056612;28;20115;-70
2022/01/31 06:19:07;;;;;;;2.55;2.05;;;;;;;;;;5056909;28;20033;-70
2022/01/31 06:21:34;;;;;;;2.22;2.03;;;;;;;;;;5056654;28;20091;-69
2022/01/31 06:24:00;;;;;;;2.72;2.15;;;;;;;;;;5056717;28;20119;-68
2022/01/31 06:26:27;;;;;;;2.33;2.05;;;;;;;;;;5056677;28;20128;-69
2022/01/31 06:28:54;;;;;;;2.72;2.42;;;;;;;;;;5075240;28;20036;-69
2022/01/31 06:31:20;;;;;;;2.97;2.42;;;;;;;;;;5076773;28;20044;-69
2022/01/31 06:33:46;;;;;;;2.47;2.28;;;;;;;;;;5076401;28;20032;-72
2022/01/31 06:36:12;;;;;;;2.38;1.90;;;;;;;;;;5076685;28;20032;-70
2022/01/31 06:38:41;;;;;;;2.13;1.90;;;;;;;;;;5076079;28;20056;-70
2022/01/31 06:41:11;;;;;;;1.85;1.70;;;;;;;;;;5076571;28;20113;-71
2022/01/31 06:43:38;;;;;;;2.42;2.17;;;;;;;;;;5075320;28;20039;-71
2022/01/31 06:46:04;;;;;;;2.53;2.33;;;;;;;;;;5075587;28;20163;-71
2022/01/31 06:48:30;;;;;;;2.58;2.13;;;;;;;;;;5075862;28;20032;-70
2022/01/31 06:50:56;;;;;;;2.22;1.90;;;;;;;;;;5076070;28;20480;-70
2022/01/31 06:53:27;;;;;;;2.65;2.35;;;;;;;;;;5075857;28;20037;-71
2022/01/31 06:55:53;;;;;;;2.47;1.90;;;;;;;;;;5076192;28;20051;-71
2022/01/31 06:58:20;;;;;;;2.10;1.90;;;;;;;;;;5076027;28;20035;-70
2022/01/31 07:00:46;;;;;;;2.38;2.17;;;;;;;;;;5075061;28;20107;-70
2022/01/31 07:03:13;;;;;;;5.35;2.10;;;;;;;;;;5075661;28;20036;-71
2022/01/31 07:05:43;;;;;;;3.22;2.45;;;;;;;;;;5075484;28;20548;-71
2022/01/31 07:08:09;;;;;;;3.05;2.30;;;;;;;;;;5075865;28;20068;-70
2022/01/31 07:10:37;;;;;;;2.45;2.25;;;;;;;;;;5075886;28;20090;-70
2022/01/31 07:13:11;;;;;;;3.30;2.50;;;;;;;;;;5076185;28;20036;-70
2022/01/31 07:15:38;;;;;;;3.15;2.30;;;;;;;;;;5074611;28;20062;-70
2022/01/31 07:18:04;;;;;;;3.72;2.50;;;;;;;;;;5075909;28;20077;-70
2022/01/31 07:20:42;;;;;;;3.60;2.50;;;;;;;;;;5075368;28;20076;-70
2022/01/31 07:23:10;;;;;;;3.35;2.55;;;;;;;;;;5075511;28;20119;-70
2022/01/31 07:25:36;;;;;;;4.57;2.78;;;;;;;;;;5075854;28;20032;-70
2022/01/31 07:28:12;;;;;;;3.80;2.03;;;;;;;;;;5075351;28;20043;-70
2022/01/31 07:30:39;;;;;;;2.35;1.70;;;;;;;;;;5075225;28;20072;-70
2022/01/31 07:33:06;;;;;;;2.00;1.40;;;;;;;;;;5075366;28;20123;-70
2022/01/31 07:35:32;;;;;;;1.90;1.38;;;;;;;;;;5073682;28;20040;-70
2022/01/31 07:37:58;;;;;;;1.10;0.95;;;;;;;;;;5074193;28;20383;-70
2022/01/31 07:40:24;;;;;;;1.75;1.30;;;;;;;;;;5074001;28;20043;-70
2022/01/31 07:42:51;;;;;;;1.38;1.10;;;;;;;;;;5073877;28;20487;-70
2022/01/31 07:45:17;;;;;;;1.77;1.00;;;;;;;;;;5074020;28;20036;-70
2022/01/31 07:47:43;;;;;;;1.90;1.20;;;;;;;;;;5073306;28;20043;-70
2022/01/31 07:50:10;;;;;;;1.52;1.20;;;;;;;;;;5073651;28;20119;-70
2022/01/31 07:52:36;;;;;;;1.88;1.50;;;;;;;;;;5074916;28;20093;-70
2022/01/31 07:55:02;;;;;;;1.67;1.02;;;;;;;;;;5075264;28;20517;-71
2022/01/31 07:57:28;;;;;;;2.17;1.13;;;;;;;;;;5075260;28;20037;-71
2022/01/31 07:59:55;;;;;;;1.17;1.08;;;;;;;;;;5074930;28;20138;-70
2022/01/31 08:02:21;;;;;;;0.70;0.70;;;;;;;;;;5075367;28;20043;-70
2022/01/31 08:04:47;;;;;;;1.10;0.90;;;;;;;;;;5074603;28;20034;-70
2022/01/31 08:07:13;;;;;;;0.88;0.77;;;;;;;;;;5074613;28;20491;-70
2022/01/31 08:09:40;;;;;;;0.60;0.57;;;;;;;;;;5074951;28;20039;-70
2022/01/31 08:12:06;;;;;;;0.80;0.80;;;;;;;;;;5073774;28;20044;-70
2022/01/31 08:14:32;;;;;;;0.70;0.63;;;;;;;;;;5074198;28;20025;-70
2022/01/31 08:16:59;;;;;;;0.70;0.57;;;;;;;;;;5074710;28;20040;-70
2022/01/31 08:19:26;;;;;;;1.00;0.80;;;;;;;;;;5074159;28;20036;-70
2022/01/31 08:21:55;;;;;;;0.93;0.75;;;;;;;;;;5074129;28;20032;-70
2022/01/31 08:24:21;;;;;;;1.00;0.90;;;;;;;;;;5073377;28;20032;-70
2022/01/31 08:26:48;;;;;;;1.02;0.93;;;;;;;;;;5060156;28;20037;-71
2022/01/31 08:29:29;;;;;;;1.08;0.90;;;;;;;;;;5061731;28;20044;-72
2022/01/31 08:31:57;;;;;;;1.25;1.00;;;;;;;;;;5063125;28;20064;-71
2022/01/31 08:37:14;;;;;;;1.30;0.68;;;;;;;;;;5032064;28;20064;-72
2022/01/31 08:39:40;;;;;;;1.17;1.08;;;;;;;;;;5061092;28;20052;-71
2022/01/31 08:42:06;;;;;;;1.20;0.77;;;;;;;;;;5062695;28;20043;-71
2022/01/31 08:44:33;;;;;;;1.10;1.00;;;;;;;;;;5062195;28;20424;-71
2022/01/31 08:46:59;;;;;;;1.17;1.08;;;;;;;;;;5064959;28;20135;-72
2022/01/31 08:49:25;;;;;;;1.10;0.57;;;;;;;;;;5062510;28;20032;-72
2022/01/31 08:51:51;;;;;;;0.85;0.70;;;;;;;;;;5063263;28;20438;-72
2022/01/31 08:54:17;;;;;;;1.23;0.98;;;;;;;;;;5064097;28;20488;-72
2022/01/31 08:56:45;;;;;;;0.70;0.70;;;;;;;;;;5062471;28;20072;-72
2022/01/31 08:59:14;;;;;;;0.50;0.50;;;;;;;;;;5063343;28;20120;-71
2022/01/31 09:01:40;;;;;;;0.50;0.50;;;;;;;;;;5051971;28;20484;-71
2022/01/31 09:04:09;;;;;;;0.50;0.40;;;;;;;;;;5052232;28;20059;-71
2022/01/31 09:06:36;;;;;;;0.50;0.40;;;;;;;;;;5052625;28;20048;-71
2022/01/31 09:09:06;;;;;;;0.35;0.28;;;;;;;;;;5056268;28;20483;-71
2022/01/31 09:11:32;;;;;;;0.90;0.40;;;;;;;;;;5053715;28;20037;-71
2022/01/31 09:13:59;;;;;;;0.20;0.20;;;;;;;;;;5053973;28;20163;-71
2022/01/31 09:16:25;;;;;;;0.20;0.20;;;;;;;;;;5054339;28;20119;-71
2022/01/31 09:18:52;;;;;;;0.40;0.30;;;;;;;;;;5053868;28;20146;-71
2022/01/31 09:21:18;;;;;;;0.30;0.30;;;;;;;;;;5053963;28;20547;-71
2022/01/31 09:23:51;;;;;;;0.40;0.20;;;;;;;;;;5057774;28;20041;-71
2022/01/31 09:26:18;;;;;;;0.10;0.10;;;;;;;;;;5058096;28;20037;-71
2022/01/31 09:28:44;;;;;;;0.75;0.30;;;;;;;;;;5058011;28;20082;-71
2022/01/31 09:31:10;;;;;;;0.20;0.20;;;;;;;;;;5057512;28;20550;-71
2022/01/31 09:33:37;;;;;;;1.00;0.90;;;;;;;;;;5057696;28;20041;-71
2022/01/31 09:36:03;;;;;;;0.30;0.30;;;;;;;;;;5057994;28;20047;-71
2022/01/31 09:38:29;;;;;;;0.20;0.20;;;;;;;;;;5057635;28;20032;-71
2022/01/31 09:40:55;;;;;;;0.20;0.20;;;;;;;;;;5058450;28;20122;-71
2022/01/31 09:46:14;;;;;;;0.10;0.10;;;;;;;;;;5058359;28;20029;-71
2022/01/31 09:48:41;;;;;;;0.10;0.10;;;;;;;;;;5056965;28;20040;-71
2022/01/31 09:51:09;;;;;;;0.10;0.10;;;;;;;;;;5057775;28;20044;-71
2022/01/31 09:53:44;;;;;;;0.95;0.20;;;;;;;;;;5057548;28;20037;-72
2022/01/31 09:56:11;;;;;;;0.47;0.40;;;;;;;;;;5057237;28;20488;-74
2022/01/31 09:58:38;;;;;;;0.40;0.40;;;;;;;;;;5057371;28;20119;-71
2022/01/31 10:01:10;;;;;;;0.22;0.20;;;;;;;;;;5057009;28;20479;-72
2022/01/31 10:03:45;;;;;;;0.20;0.20;;;;;;;;;;5055097;28;20045;-72
2022/01/31 10:06:21;;;;;;;0.10;0.10;;;;;;;;;;5055790;28;20116;-72
2022/01/31 10:08:49;;;;;;;0.20;0.20;;;;;;;;;;5056675;28;20041;-72
2022/01/31 10:11:27;;;;;;;0.30;0.17;;;;;;;;;;5057117;28;20045;-72
2022/01/31 10:16:44;;;;;;;0.30;0.30;;;;;;;;;;5027122;28;20411;-72
2022/01/31 10:19:10;;;;;;;0.40;0.20;;;;;;;;;;5053490;28;20037;-72
2022/01/31 10:21:55;;;;;;;0.38;0.38;;;;;;;;;;5054556;28;20051;-72
2022/01/31 10:24:21;;;;;;;0.40;0.40;;;;;;;;;;5055203;28;20044;-72
2022/01/31 10:26:47;;;;;;;0.63;0.40;;;;;;;;;;5055270;28;20126;-72
2022/01/31 10:29:15;;;;;;;0.43;0.40;;;;;;;;;;5055649;28;20029;-73
2022/01/31 10:31:53;;;;;;;0.38;0.38;;;;;;;;;;5054265;28;20036;-73
2022/01/31 10:34:23;;;;;;;0.40;0.40;;;;;;;;;;5053140;28;20036;-73
2022/01/31 10:36:49;;;;;;;0.22;0.20;;;;;;;;;;5053756;28;20475;-74
2022/01/31 10:43:25;;;;;;;0.25;0.25;;;;;;;;;;5054545;28;20043;-74
2022/01/31 10:45:28;;;;;;;0.30;0.30;;;;;;;;;;5054231;28;20040;-73
2022/01/31 10:53:24;;;;;;;0.43;0.40;;;;;;;;;;5054442;28;20103;-73
2022/01/31 10:55:56;;;;;;;0.60;0.40;;;;;;;;;;5052949;28;20109;-73
2022/01/31 10:58:22;;;;;;;0.30;0.30;;;;;;;;;;5053579;28;20048;-72
2022/01/31 11:00:49;;;;;;;0.50;0.43;;;;;;;;;;5054708;28;20044;-73
2022/01/31 11:03:29;;;;;;;0.40;0.40;;;;;;;;;;5055067;28;20037;-73
2022/01/31 11:05:55;;;;;;;1.25;1.15;;;;;;;;;;5055563;28;20094;-73
2022/01/31 11:08:21;;;;;;;0.40;0.30;;;;;;;;;;5054071;28;20123;-73
2022/01/31 11:10:47;;;;;;;0.80;0.57;;;;;;;;;;5054374;28;20091;-74
2022/01/31 11:13:17;;;;;;;0.20;0.20;;;;;;;;;;5055199;28;20060;-72
2022/01/31 11:15:44;;;;;;;0.55;0.43;;;;;;;;;;5054025;28;20128;-72
2022/01/31 11:18:11;;;;;;;0.65;0.43;;;;;;;;;;5055059;28;20060;-72
2022/01/31 11:20:43;;;;;;;0.30;0.30;;;;;;;;;;5054206;28;20048;-72
2022/01/31 11:23:09;;;;;;;0.30;0.30;;;;;;;;;;5054049;28;20033;-72
2022/01/31 11:25:39;;;;;;;0.40;0.40;;;;;;;;;;5054786;28;20057;-72
2022/01/31 11:28:06;;;;;;;0.40;0.30;;;;;;;;;;5054519;28;20064;-72
2022/01/31 11:30:32;;;;;;;0.30;0.30;;;;;;;;;;5053095;28;20057;-72
2022/01/31 11:32:58;;;;;;;1.95;0.50;;;;;;;;;;5053508;28;20124;-72
2022/01/31 11:35:25;;;;;;;0.20;0.20;;;;;;;;;;5053571;28;20036;-72
2022/01/31 11:37:51;;;;;;;0.20;0.20;;;;;;;;;;5052561;28;20171;-72
2022/01/31 11:40:18;;;;;;;0.20;0.20;;;;;;;;;;5053078;28;20083;-73
2022/01/31 11:42:49;;;;;;;0.20;0.20;;;;;;;;;;5053563;28;20049;-72
2022/01/31 11:45:15;;;;;;;0.73;0.40;;;;;;;;;;5053531;28;20033;-72
2022/01/31 11:47:41;;;;;;;0.55;0.40;;;;;;;;;;5053880;28;20158;-72
2022/01/31 11:50:08;;;;;;;0.93;0.40;;;;;;;;;;5053655;28;20095;-71
2022/01/31 11:52:53;;;;;;;0.30;0.30;;;;;;;;;;5054322;28;20122;-72
2022/01/31 11:55:21;;;;;;;1.05;0.50;;;;;;;;;;5054784;28;20036;-72
2022/01/31 11:57:49;;;;;;;0.30;0.30;;;;;;;;;;5054488;28;20101;-72
2022/01/31 12:00:16;;;;;;;0.20;0.20;;;;;;;;;;5054618;28;20072;-72
2022/01/31 12:02:47;;;;;;;0.20;0.20;;;;;;;;;;5054480;28;20033;-73
2022/01/31 12:05:19;;;;;;;1.05;0.95;;;;;;;;;;5054752;28;20060;-72
2022/01/31 12:07:46;;;;;;;0.32;0.32;;;;;;;;;;5054557;28;20136;-72
2022/01/31 12:10:13;;;;;;;0.20;0.20;;;;;;;;;;5055482;28;20071;-72
2022/01/31 12:12:48;;;;;;;0.57;0.40;;;;;;;;;;5055025;28;20048;-72
2022/01/31 12:15:48;;;;;;;0.63;0.20;;;;;;;;;;5055064;28;20035;-72
2022/01/31 12:23:49;;;;;;;0.30;0.30;;;;;;;;;;5054113;28;20028;-72
2022/01/31 12:26:33;;;;;;;0.30;0.30;;;;;;;;;;5054419;28;20103;-72
2022/01/31 12:29:01;;;;;;;0.30;0.30;;;;;;;;;;5054332;28;20071;-72
2022/01/31 12:31:30;;;;;;;0.43;0.43;;;;;;;;;;5054392;28;20085;-72
2022/01/31 12:33:57;;;;;;;0.30;0.30;;;;;;;;;;5053470;28;20037;-72
2022/01/31 12:36:45;;;;;;;0.63;0.57;;;;;;;;;;5053612;28;20048;-72
2022/01/31 12:39:27;;;;;;;0.40;0.40;;;;;;;;;;5053939;28;20167;-72
2022/01/31 12:42:00;;;;;;;0.40;0.40;;;;;;;;;;5053744;28;20560;-72
2022/01/31 12:44:26;;;;;;;1.80;0.93;;;;;;;;;;5087873;28;20040;-72
2022/01/31 12:46:52;;;;;;;0.73;0.50;;;;;;;;;;5058258;28;20091;-72
2022/01/31 12:49:18;;;;;;;0.60;0.45;;;;;;;;;;5051141;28;20073;-72
2022/01/31 12:51:59;;;;;;;0.30;0.30;;;;;;;;;;5049763;28;20048;-72
2022/01/31 12:54:25;;;;;;;1.80;0.98;;;;;;;;;;5051418;28;20039;-73
2022/01/31 12:56:53;;;;;;;1.02;0.80;;;;;;;;;;5052980;28;20190;-73
2022/01/31 12:59:19;;;;;;;0.80;0.60;;;;;;;;;;5056671;28;20032;-72
2022/01/31 13:01:47;;;;;;;1.00;0.80;;;;;;;;;;5087900;28;20054;-72
2022/01/31 13:04:15;;;;;;;0.70;0.70;;;;;;;;;;5077547;28;20040;-72
2022/01/31 13:06:43;;;;;;;0.70;0.50;;;;;;;;;;5076217;28;20052;-72
2022/01/31 13:09:12;;;;;;;0.47;0.30;;;;;;;;;;5077594;28;20111;-72
2022/01/31 13:11:39;;;;;;;0.73;0.63;;;;;;;;;;5077309;28;20048;-72
2022/01/31 13:14:12;;;;;;;0.35;0.35;;;;;;;;;;5077025;28;20035;-72
2022/01/31 13:16:40;;;;;;;1.15;0.57;;;;;;;;;;5077068;28;20487;-72
2022/01/31 13:19:13;;;;;;;0.40;0.40;;;;;;;;;;5077127;28;20032;-72
2022/01/31 13:21:39;;;;;;;0.70;0.70;;;;;;;;;;5076688;28;20140;-72
2022/01/31 13:24:05;;;;;;;0.45;0.40;;;;;;;;;;5075898;28;20086;-72
2022/01/31 13:26:46;;;;;;;0.70;0.50;;;;;;;;;;5076648;28;20051;-72
2022/01/31 13:29:25;;;;;;;0.45;0.30;;;;;;;;;;5075967;28;20060;-72
2022/01/31 13:31:51;;;;;;;0.35;0.35;;;;;;;;;;5075354;28;20120;-72
2022/01/31 13:34:32;;;;;;;1.13;0.50;;;;;;;;;;5059205;28;20040;-72
2022/01/31 13:36:58;;;;;;;0.30;0.25;;;;;;;;;;5056117;28;20072;-72
2022/01/31 13:39:25;;;;;;;0.15;0.15;;;;;;;;;;5062822;28;20107;-70
2022/01/31 13:41:51;;;;;;;0.30;0.30;;;;;;;;;;5076524;28;20562;-71
2022/01/31 13:44:21;;;;;;;0.40;0.30;;;;;;;;;;5076771;28;20060;-71
2022/01/31 13:46:51;;;;;;;0.50;0.50;;;;;;;;;;5076376;28;20033;-71
2022/01/31 13:49:23;;;;;;;0.55;0.50;;;;;;;;;;5075640;28;20116;-71
2022/01/31 13:51:51;;;;;;;0.30;0.30;;;;;;;;;;5076260;28;20075;-73
2022/01/31 13:54:18;;;;;;;1.30;0.60;;;;;;;;;;5076395;28;20032;-72
2022/01/31 13:56:49;;;;;;;0.20;0.20;;;;;;;;;;5085359;28;20043;-71
2022/01/31 13:59:15;;;;;;;;;;;;;;;;;;5078840;28;20113;-71
2022/01/31 14:01:41;;;;;;;0.50;0.47;;;;;;;;;;5076637;28;19916;-72
2022/01/31 14:04:10;;;;;;;0.80;0.55;;;;;;;;;;5076912;28;20043;-73
2022/01/31 14:06:36;;;;;;;0.65;0.47;;;;;;;;;;5076561;28;20052;-71
2022/01/31 14:09:06;;;;;;;0.50;0.40;;;;;;;;;;5076433;28;20547;-71
2022/01/31 14:11:37;;;;;;;0.38;0.38;;;;;;;;;;5077094;28;20056;-71
2022/01/31 14:14:03;;;;;;;1.73;1.08;;;;;;;;;;5077641;28;20040;-71
2022/01/31 14:16:31;;;;;;;0.60;0.40;;;;;;;;;;5077349;28;20047;-71
2022/01/31 14:18:58;;;;;;;0.65;0.35;;;;;;;;;;5077162;28;20091;-72
2022/01/31 14:21:24;;;;;;;1.00;0.70;;;;;;;;;;5076984;28;20463;-71
2022/01/31 14:23:51;;;;;;;0.68;0.55;;;;;;;;;;5076841;28;20479;-72
2022/01/31 14:26:36;;;;;;;0.22;0.22;;;;;;;;;;5076746;28;20509;-71
2022/01/31 14:29:09;;;;;;;0.40;0.40;;;;;;;;;;5076741;28;20036;-71
2022/01/31 14:31:39;;;;;;;0.40;0.40;;;;;;;;;;5076536;28;20043;-73
2022/01/31 14:34:10;;;;;;;1.48;0.70;;;;;;;;;;5076154;28;20063;-73
2022/01/31 14:36:43;;;;;;;0.65;0.50;;;;;;;;;;5086239;28;20123;-73
2022/01/31 14:39:25;;;;;;;2.42;0.68;;;;;;;;;;5076466;28;20032;-72
2022/01/31 14:49:46;;;;;;;0.98;0.60;;;;;;;;;;5076310;28;20085;-74
2022/01/31 14:52:13;;;;;;;1.17;0.60;;;;;;;;;;5075522;28;20123;-74
2022/01/31 14:54:40;;;;;;;0.75;0.57;;;;;;;;;;5075730;28;20102;-73
2022/01/31 14:57:07;;;;;;;0.30;0.30;;;;;;;;;;5075808;28;20024;-74
2022/01/31 14:59:33;;;;;;;0.95;0.75;;;;;;;;;;5076207;28;20067;-74
2022/01/31 15:01:59;;;;;;;0.90;0.65;;;;;;;;;;5075896;28;20075;-74
2022/01/31 15:04:26;;;;;;;3.65;1.20;;;;;;;;;;5075941;28;20506;-74
2022/01/31 15:06:52;;;;;;;0.65;0.65;;;;;;;;;;5076086;28;20049;-74
2022/01/31 15:09:19;;;;;;;0.70;0.50;;;;;;;;;;5076599;28;20083;-75
2022/01/31 15:11:46;;;;;;;0.95;0.60;;;;;;;;;;5076106;28;20043;-74
2022/01/31 15:14:14;;;;;;;1.05;0.40;;;;;;;;;;5076140;28;20043;-75
2022/01/31 15:16:41;;;;;;;1.35;0.30;;;;;;;;;;5076035;28;20033;-74
2022/01/31 15:19:07;;;;;;;0.40;0.40;;;;;;;;;;5075887;28;20097;-75